Rowena, Texas
Current Conditions -  °F | °C
As of 5:51 PM on Thursday 27 Nov 2014 (Local Time) from KSJT Reporting Station
Clear Clear  
Wind Chill: 14°   Ceiling: Unl
Heat Index: 14°   Visibility: 10mi
Dew Point:   Wind: 5mph
Humidity: 37%   Direction: 140°SE
Pressure: 30.33"   Gusts: NA
Location:  31.65°N, 100.05°W
Report Text: KSJT 272351Z 14004KT 10SM CLR 14/00 A3033 RMK AO2 SLP275 T01440000 10189 20133 56012
Loading
Personal Weather Stations






























Interactive Weather Map New forecast layout! Learn more

10-Day Weather Forecast

Advertisements
Track Severe Weather on mobile